Time;durP1;ratioP1;P1;durP2;ratioP2;P2;SDS_P1;SDS_P2;PMS_P1;PMS_P2;Temp;Humidity;BMP_temperature;BMP_pressure;BME280_temperature;BME280_humidity;BME280_pressure;Samples;Min_cycle;Max_cycle;Signal;HPM_P1;HPM_P2
2022/07/13 00:00:04;;;;;;;16.25;11.90;;;;;;;;;;5052602;28;20029;-73
2022/07/13 00:02:30;;;;;;;16.95;12.00;;;;;;;;;;5052719;28;20033;-73
2022/07/13 00:04:56;;;;;;;13.90;11.75;;;;;;;;;;5054895;28;20580;-72
2022/07/13 00:07:22;;;;;;;14.60;12.35;;;;;;;;;;5048098;28;20032;-73
2022/07/13 00:09:48;;;;;;;13.48;11.85;;;;;;;;;;5053251;28;20021;-74
2022/07/13 00:12:14;;;;;;;16.98;12.20;;;;;;;;;;5050822;28;20541;-71
2022/07/13 00:14:42;;;;;;;13.95;12.23;;;;;;;;;;5052054;28;20051;-74
2022/07/13 00:17:08;;;;;;;17.77;13.70;;;;;;;;;;5046622;28;20112;-74
2022/07/13 00:19:34;;;;;;;19.25;13.20;;;;;;;;;;5052076;28;20171;-74
2022/07/13 00:22:00;;;;;;;20.40;13.27;;;;;;;;;;5048020;28;20116;-75
2022/07/13 00:24:26;;;;;;;15.10;13.05;;;;;;;;;;5046049;28;20039;-74
2022/07/13 00:26:52;;;;;;;20.20;13.90;;;;;;;;;;5052551;28;20127;-74
2022/07/13 00:29:18;;;;;;;17.27;13.27;;;;;;;;;;5047090;28;20478;-74
2022/07/13 00:31:46;;;;;;;17.70;13.95;;;;;;;;;;5050237;28;20040;-73
2022/07/13 00:34:12;;;;;;;21.50;13.73;;;;;;;;;;5051614;28;20051;-72
2022/07/13 00:36:38;;;;;;;18.55;13.30;;;;;;;;;;5050582;28;20551;-73
2022/07/13 00:39:04;;;;;;;17.65;13.95;;;;;;;;;;5053995;28;20079;-75
2022/07/13 00:41:30;;;;;;;16.35;12.57;;;;;;;;;;5048148;28;20080;-74
2022/07/13 00:44:06;;;;;;;17.42;13.40;;;;;;;;;;5043125;28;20071;-74
2022/07/13 00:46:33;;;;;;;16.63;12.45;;;;;;;;;;5050174;28;20139;-72
2022/07/13 00:49:00;;;;;;;15.82;12.82;;;;;;;;;;5053130;28;20029;-74
2022/07/13 00:51:27;;;;;;;19.08;12.68;;;;;;;;;;5049980;28;20071;-75
2022/07/13 00:53:53;;;;;;;17.35;13.80;;;;;;;;;;5053018;28;20053;-74
2022/07/13 00:56:19;;;;;;;17.73;13.23;;;;;;;;;;5049464;28;20031;-73
2022/07/13 00:58:46;;;;;;;17.80;13.07;;;;;;;;;;5048541;28;20068;-74
2022/07/13 01:01:12;;;;;;;15.77;12.68;;;;;;;;;;5047613;28;20092;-73
2022/07/13 01:03:38;;;;;;;20.77;13.05;;;;;;;;;;5047974;28;20029;-72
2022/07/13 01:06:06;;;;;;;18.00;13.68;;;;;;;;;;5029177;28;20037;-74
2022/07/13 01:08:32;;;;;;;18.00;13.93;;;;;;;;;;5050193;28;20037;-73
2022/07/13 01:10:58;;;;;;;17.83;13.30;;;;;;;;;;5044875;28;20036;-74
2022/07/13 01:13:24;;;;;;;17.55;12.63;;;;;;;;;;5053223;28;20061;-72
2022/07/13 01:15:50;;;;;;;16.88;13.18;;;;;;;;;;5047168;28;20535;-74
2022/07/13 01:18:17;;;;;;;16.73;13.75;;;;;;;;;;5051902;28;20028;-73
2022/07/13 01:20:43;;;;;;;23.70;14.13;;;;;;;;;;5049306;28;20041;-74
2022/07/13 01:23:15;;;;;;;19.13;13.82;;;;;;;;;;5046894;28;20080;-73
2022/07/13 01:25:41;;;;;;;20.63;13.45;;;;;;;;;;5043054;28;20029;-75
2022/07/13 01:28:08;;;;;;;20.45;13.48;;;;;;;;;;5048357;28;20066;-73
2022/07/13 01:30:34;;;;;;;21.08;13.82;;;;;;;;;;5048114;28;20028;-73
2022/07/13 01:33:00;;;;;;;19.20;14.27;;;;;;;;;;5049932;28;20056;-73
2022/07/13 01:35:26;;;;;;;18.45;15.23;;;;;;;;;;5041950;28;20040;-74
2022/07/13 01:37:54;;;;;;;20.85;15.38;;;;;;;;;;5040050;28;20029;-76
2022/07/13 01:40:20;;;;;;;24.80;16.40;;;;;;;;;;5050005;28;20029;-74
2022/07/13 01:43:05;;;;;;;22.50;15.85;;;;;;;;;;5041587;28;20025;-74
2022/07/13 01:45:31;;;;;;;22.45;17.08;;;;;;;;;;5046934;28;20375;-75
2022/07/13 01:47:57;;;;;;;22.50;17.70;;;;;;;;;;5043151;28;20486;-75
2022/07/13 01:50:24;;;;;;;29.38;20.85;;;;;;;;;;5043882;28;20123;-76
2022/07/13 01:52:50;;;;;;;26.75;20.90;;;;;;;;;;5042712;28;20080;-77
2022/07/13 01:55:16;;;;;;;29.17;20.65;;;;;;;;;;5036809;28;20028;-74
2022/07/13 01:57:43;;;;;;;26.45;20.50;;;;;;;;;;5047180;28;20159;-74
2022/07/13 02:00:09;;;;;;;34.40;20.85;;;;;;;;;;5042406;28;20435;-74
2022/07/13 02:02:35;;;;;;;27.40;21.25;;;;;;;;;;5059283;28;20582;-74
2022/07/13 02:05:01;;;;;;;28.52;21.55;;;;;;;;;;5028197;28;20068;-74
2022/07/13 02:07:27;;;;;;;29.45;20.75;;;;;;;;;;5045342;28;20032;-73
2022/07/13 02:09:53;;;;;;;25.95;20.92;;;;;;;;;;5044241;28;20029;-74
2022/07/13 02:12:19;;;;;;;26.38;21.13;;;;;;;;;;5039659;28;20048;-75
2022/07/13 02:14:46;;;;;;;31.48;19.95;;;;;;;;;;5048530;28;20486;-74
2022/07/13 02:17:12;;;;;;;34.95;21.80;;;;;;;;;;5045132;28;20113;-74
2022/07/13 02:19:38;;;;;;;30.58;20.95;;;;;;;;;;5041181;28;20087;-74
2022/07/13 02:22:04;;;;;;;31.80;21.50;;;;;;;;;;5044783;28;20593;-75
2022/07/13 02:24:30;;;;;;;28.85;20.80;;;;;;;;;;5042721;28;20075;-71
2022/07/13 02:26:56;;;;;;;30.10;20.85;;;;;;;;;;5045117;28;20124;-73
2022/07/13 02:29:23;;;;;;;26.98;20.35;;;;;;;;;;5042013;28;20025;-72
2022/07/13 02:31:49;;;;;;;28.90;21.08;;;;;;;;;;5036259;28;20031;-73
2022/07/13 02:34:15;;;;;;;29.77;20.98;;;;;;;;;;5045437;28;20021;-73
2022/07/13 02:36:41;;;;;;;28.42;21.30;;;;;;;;;;5042518;28;20032;-74
2022/07/13 02:39:07;;;;;;;28.02;20.13;;;;;;;;;;5045062;28;20033;-75
2022/07/13 02:41:33;;;;;;;29.10;21.52;;;;;;;;;;5042039;28;20120;-73
2022/07/13 02:43:59;;;;;;;28.85;20.77;;;;;;;;;;5041300;28;20111;-72
2022/07/13 02:46:25;;;;;;;29.10;21.45;;;;;;;;;;5023293;28;20037;-74
2022/07/13 02:48:51;;;;;;;28.27;21.05;;;;;;;;;;5037284;28;20075;-74
2022/07/13 02:51:17;;;;;;;31.30;21.63;;;;;;;;;;5040155;28;20025;-73
2022/07/13 02:53:43;;;;;;;28.38;21.30;;;;;;;;;;5041007;28;20465;-73
2022/07/13 02:56:09;;;;;;;31.20;22.58;;;;;;;;;;5042045;28;20032;-73
2022/07/13 02:58:35;;;;;;;28.77;20.35;;;;;;;;;;5047690;28;20463;-73
2022/07/13 03:01:01;;;;;;;29.73;21.35;;;;;;;;;;5043283;28;20033;-73
2022/07/13 03:03:27;;;;;;;30.83;22.27;;;;;;;;;;5044151;28;20025;-73
2022/07/13 03:05:53;;;;;;;30.55;20.98;;;;;;;;;;5041111;28;20063;-74
2022/07/13 03:08:19;;;;;;;31.58;22.92;;;;;;;;;;5048404;28;20033;-73
2022/07/13 03:10:45;;;;;;;30.55;22.00;;;;;;;;;;5041588;28;20082;-73
2022/07/13 03:13:11;;;;;;;30.65;22.88;;;;;;;;;;5044755;28;20121;-76
2022/07/13 03:15:37;;;;;;;30.13;22.48;;;;;;;;;;5044523;28;20030;-75
2022/07/13 03:18:04;;;;;;;29.95;21.85;;;;;;;;;;5050118;28;20025;-75
2022/07/13 03:20:30;;;;;;;30.08;20.88;;;;;;;;;;5048620;28;20033;-75
2022/07/13 03:22:56;;;;;;;27.40;21.38;;;;;;;;;;5048711;28;20119;-75
2022/07/13 03:25:22;;;;;;;28.90;22.05;;;;;;;;;;5047355;28;20067;-75
2022/07/13 03:27:48;;;;;;;36.35;21.40;;;;;;;;;;5047022;28;20136;-74
2022/07/13 03:30:14;;;;;;;27.52;21.10;;;;;;;;;;5041731;28;20084;-74
2022/07/13 03:32:40;;;;;;;30.95;22.60;;;;;;;;;;5044110;28;20024;-73
2022/07/13 03:35:06;;;;;;;32.45;21.83;;;;;;;;;;5042142;28;20034;-73
2022/07/13 03:37:32;;;;;;;28.27;21.83;;;;;;;;;;5049676;28;20065;-75
2022/07/13 03:39:58;;;;;;;27.48;21.77;;;;;;;;;;5044211;28;20040;-75
2022/07/13 03:42:24;;;;;;;29.13;22.67;;;;;;;;;;5041835;28;20029;-73
2022/07/13 03:44:50;;;;;;;28.10;20.92;;;;;;;;;;5050086;28;20040;-73
2022/07/13 03:47:16;;;;;;;27.63;19.52;;;;;;;;;;5049265;28;20033;-73
2022/07/13 03:49:42;;;;;;;28.63;20.88;;;;;;;;;;5039292;28;20040;-73
2022/07/13 03:52:08;;;;;;;27.33;20.02;;;;;;;;;;5040330;28;20095;-73
2022/07/13 03:54:34;;;;;;;24.10;19.58;;;;;;;;;;5042241;28;20044;-73
2022/07/13 03:57:00;;;;;;;23.95;17.50;;;;;;;;;;5039723;28;20320;-72
2022/07/13 03:59:26;;;;;;;21.13;17.30;;;;;;;;;;5048917;28;20112;-73
2022/07/13 04:01:52;;;;;;;22.67;17.15;;;;;;;;;;5045665;28;20025;-73
2022/07/13 04:04:18;;;;;;;29.45;18.25;;;;;;;;;;5043659;28;20069;-73
2022/07/13 04:06:44;;;;;;;25.65;17.17;;;;;;;;;;5044241;28;20033;-73
2022/07/13 04:09:10;;;;;;;29.67;18.33;;;;;;;;;;5032264;28;20029;-73
2022/07/13 04:11:37;;;;;;;24.55;18.45;;;;;;;;;;5045085;28;20125;-72
2022/07/13 04:14:03;;;;;;;27.35;17.85;;;;;;;;;;5045635;28;20062;-74
2022/07/13 04:16:29;;;;;;;22.42;14.65;;;;;;;;;;5050483;28;20029;-72
2022/07/13 04:18:55;;;;;;;21.17;14.32;;;;;;;;;;5049101;28;20039;-73
2022/07/13 04:21:21;;;;;;;20.95;13.70;;;;;;;;;;5044295;28;20033;-72
2022/07/13 04:23:47;;;;;;;15.25;11.70;;;;;;;;;;5042253;28;20039;-73
2022/07/13 04:26:13;;;;;;;16.33;11.93;;;;;;;;;;5044980;28;20036;-72
2022/07/13 04:28:39;;;;;;;17.77;11.57;;;;;;;;;;5046061;28;20052;-74
2022/07/13 04:31:05;;;;;;;15.27;10.18;;;;;;;;;;5050690;28;20029;-74
2022/07/13 04:33:31;;;;;;;16.27;10.20;;;;;;;;;;5053256;28;20033;-74
2022/07/13 04:35:57;;;;;;;17.42;9.88;;;;;;;;;;5048915;28;20047;-72
2022/07/13 04:38:23;;;;;;;26.52;11.10;;;;;;;;;;5049888;28;20009;-72
2022/07/13 04:40:49;;;;;;;13.25;9.57;;;;;;;;;;5050338;28;20029;-72
2022/07/13 04:43:15;;;;;;;18.30;9.77;;;;;;;;;;5049610;28;20032;-73
2022/07/13 04:45:41;;;;;;;14.50;9.75;;;;;;;;;;5042242;28;20100;-73
2022/07/13 04:48:07;;;;;;;12.48;8.73;;;;;;;;;;5051418;28;20029;-73
2022/07/13 04:50:34;;;;;;;12.70;8.95;;;;;;;;;;5047713;28;20036;-72
2022/07/13 04:53:00;;;;;;;16.52;9.68;;;;;;;;;;5043382;28;20100;-74
2022/07/13 04:55:26;;;;;;;14.88;9.82;;;;;;;;;;5046821;28;20067;-74
2022/07/13 04:57:54;;;;;;;16.77;9.50;;;;;;;;;;5049337;28;20155;-74
2022/07/13 05:00:20;;;;;;;14.60;9.57;;;;;;;;;;5045016;28;20543;-74
2022/07/13 05:02:46;;;;;;;13.52;10.13;;;;;;;;;;5044686;28;20033;-74
2022/07/13 05:05:12;;;;;;;16.42;10.38;;;;;;;;;;5041550;28;20041;-73
2022/07/13 05:07:38;;;;;;;15.68;9.82;;;;;;;;;;5047352;28;20036;-73
2022/07/13 05:10:05;;;;;;;12.07;9.95;;;;;;;;;;5047409;28;20119;-74
2022/07/13 05:12:31;;;;;;;18.27;10.50;;;;;;;;;;5042722;28;20071;-74
2022/07/13 05:14:58;;;;;;;16.75;10.77;;;;;;;;;;5022485;28;20030;-74
2022/07/13 05:17:24;;;;;;;14.23;10.00;;;;;;;;;;5043524;28;20044;-74
2022/07/13 05:19:50;;;;;;;15.02;10.68;;;;;;;;;;5046568;28;20037;-73
2022/07/13 05:22:16;;;;;;;23.13;10.55;;;;;;;;;;5039560;28;20029;-72
2022/07/13 05:24:43;;;;;;;15.68;10.40;;;;;;;;;;5046817;28;20033;-73
2022/07/13 05:27:10;;;;;;;16.50;10.52;;;;;;;;;;5038136;28;20041;-73
2022/07/13 05:29:36;;;;;;;14.73;10.25;;;;;;;;;;5044412;28;20071;-73
2022/07/13 05:32:02;;;;;;;12.18;10.27;;;;;;;;;;5039036;28;20108;-72
2022/07/13 05:34:28;;;;;;;12.93;10.10;;;;;;;;;;5048104;28;20478;-73
2022/07/13 05:36:56;;;;;;;13.75;10.05;;;;;;;;;;5045900;28;20802;-73
2022/07/13 05:39:22;;;;;;;18.08;10.23;;;;;;;;;;5047726;28;20025;-73
2022/07/13 05:41:48;;;;;;;17.67;11.32;;;;;;;;;;5048174;28;20032;-73
2022/07/13 05:44:14;;;;;;;15.98;10.30;;;;;;;;;;5048089;28;20127;-74
2022/07/13 05:46:40;;;;;;;13.90;9.85;;;;;;;;;;5040659;28;20049;-73
2022/07/13 05:49:06;;;;;;;18.30;10.63;;;;;;;;;;5045988;28;20033;-72
2022/07/13 05:51:32;;;;;;;14.13;10.20;;;;;;;;;;5047656;28;20033;-72
2022/07/13 05:53:58;;;;;;;13.57;11.27;;;;;;;;;;5045075;28;20095;-73
2022/07/13 05:56:24;;;;;;;13.32;10.80;;;;;;;;;;5049505;28;20055;-74
2022/07/13 05:58:50;;;;;;;13.75;10.32;;;;;;;;;;5046880;28;20122;-73
2022/07/13 06:01:16;;;;;;;17.00;10.48;;;;;;;;;;5047382;28;20037;-73
2022/07/13 06:03:42;;;;;;;17.42;11.32;;;;;;;;;;5043720;28;20116;-74
2022/07/13 06:06:08;;;;;;;18.00;10.98;;;;;;;;;;5046762;28;20075;-76
2022/07/13 06:08:34;;;;;;;13.57;10.77;;;;;;;;;;5048101;28;20033;-75
2022/07/13 06:11:00;;;;;;;15.80;10.40;;;;;;;;;;5050663;28;20045;-74
2022/07/13 06:13:26;;;;;;;17.23;10.63;;;;;;;;;;5043564;28;20122;-75
2022/07/13 06:15:52;;;;;;;18.92;10.73;;;;;;;;;;5046818;28;20029;-76
2022/07/13 06:18:18;;;;;;;18.30;9.65;;;;;;;;;;5030678;28;20043;-76
2022/07/13 06:20:44;;;;;;;15.27;10.05;;;;;;;;;;5045764;28;20067;-77
2022/07/13 06:23:10;;;;;;;10.75;9.18;;;;;;;;;;5043845;28;20037;-76
2022/07/13 06:25:37;;;;;;;16.90;9.32;;;;;;;;;;5046026;28;20108;-78
2022/07/13 06:28:03;;;;;;;13.45;9.20;;;;;;;;;;5050999;28;20036;-75
2022/07/13 06:30:29;;;;;;;15.60;9.07;;;;;;;;;;5049725;28;20136;-78
2022/07/13 06:32:55;;;;;;;18.40;9.02;;;;;;;;;;5051438;28;20074;-78
2022/07/13 06:35:22;;;;;;;21.00;8.93;;;;;;;;;;5048334;28;20025;-79
2022/07/13 06:37:48;;;;;;;15.88;9.23;;;;;;;;;;5044934;28;20039;-80
2022/07/13 06:40:14;;;;;;;15.73;8.82;;;;;;;;;;5049950;28;20029;-80
2022/07/13 06:42:42;;;;;;;14.80;8.90;;;;;;;;;;5052549;28;20025;-78
2022/07/13 06:45:08;;;;;;;11.60;7.80;;;;;;;;;;5044334;28;20091;-79
2022/07/13 06:47:34;;;;;;;17.20;10.25;;;;;;;;;;5048019;28;20088;-79
2022/07/13 06:50:00;;;;;;;13.18;8.07;;;;;;;;;;5049174;28;20443;-80
2022/07/13 06:52:26;;;;;;;15.73;8.68;;;;;;;;;;5047440;28;20607;-81
2022/07/13 06:54:52;;;;;;;14.13;8.50;;;;;;;;;;5048112;28;20044;-78
2022/07/13 06:57:18;;;;;;;12.80;8.45;;;;;;;;;;5055340;28;20029;-80
2022/07/13 06:59:44;;;;;;;12.88;7.82;;;;;;;;;;5064861;28;20714;-81
2022/07/13 07:02:10;;;;;;;14.30;8.15;;;;;;;;;;5045093;28;20025;-79
2022/07/13 07:04:36;;;;;;;15.52;8.10;;;;;;;;;;5048103;28;20017;-79
2022/07/13 07:07:03;;;;;;;15.88;7.72;;;;;;;;;;5054064;28;20513;-79
2022/07/13 07:09:29;;;;;;;10.52;7.05;;;;;;;;;;5050997;28;20045;-80
2022/07/13 07:11:55;;;;;;;14.93;8.43;;;;;;;;;;5052164;28;20017;-80
2022/07/13 07:14:21;;;;;;;15.65;7.30;;;;;;;;;;5049548;28;20103;-80
2022/07/13 07:16:48;;;;;;;9.73;7.35;;;;;;;;;;5060513;28;20025;-80
2022/07/13 07:19:14;;;;;;;17.95;6.95;;;;;;;;;;5044940;28;20068;-80
2022/07/13 07:21:40;;;;;;;12.80;7.40;;;;;;;;;;5031622;28;20028;-79
2022/07/13 07:24:06;;;;;;;14.82;7.15;;;;;;;;;;5047727;28;20112;-80
2022/07/13 07:26:32;;;;;;;11.88;6.43;;;;;;;;;;5054408;28;20036;-80
2022/07/13 07:28:59;;;;;;;10.80;6.72;;;;;;;;;;5050845;28;20033;-79
2022/07/13 07:31:25;;;;;;;15.55;6.85;;;;;;;;;;5047186;28;20052;-79
2022/07/13 07:33:51;;;;;;;11.15;6.75;;;;;;;;;;5054569;28;20017;-80
2022/07/13 07:36:17;;;;;;;12.90;7.35;;;;;;;;;;5051568;28;20021;-79
2022/07/13 07:38:46;;;;;;;18.08;7.65;;;;;;;;;;5053422;28;20219;-81
2022/07/13 07:41:13;;;;;;;13.23;6.88;;;;;;;;;;5053153;28;20030;-80
2022/07/13 07:43:39;;;;;;;11.48;6.25;;;;;;;;;;5027455;28;20044;-81
2022/07/13 07:46:05;;;;;;;13.45;7.07;;;;;;;;;;5048328;28;20037;-81
2022/07/13 07:48:31;;;;;;;10.20;6.90;;;;;;;;;;5052071;28;20068;-81
2022/07/13 07:50:58;;;;;;;25.42;6.30;;;;;;;;;;5057286;28;20496;-79
2022/07/13 07:53:24;;;;;;;14.10;7.00;;;;;;;;;;5051978;28;20041;-81
2022/07/13 07:55:50;;;;;;;10.07;5.90;;;;;;;;;;5049881;28;20032;-80
2022/07/13 07:58:16;;;;;;;9.32;5.68;;;;;;;;;;5054249;28;20025;-80
2022/07/13 08:00:42;;;;;;;11.82;5.47;;;;;;;;;;5047643;28;20045;-79
2022/07/13 08:03:09;;;;;;;9.98;6.20;;;;;;;;;;5058153;28;20033;-79
2022/07/13 08:05:35;;;;;;;11.07;6.38;;;;;;;;;;5056533;28;20029;-79
2022/07/13 08:08:01;;;;;;;8.02;5.55;;;;;;;;;;5060066;28;20033;-80
2022/07/13 08:10:27;;;;;;;9.02;6.00;;;;;;;;;;5061077;28;20090;-78
2022/07/13 08:12:54;;;;;;;10.63;5.78;;;;;;;;;;5058227;28;20155;-80
2022/07/13 08:15:21;;;;;;;14.80;6.20;;;;;;;;;;5052438;28;20068;-79
2022/07/13 08:17:47;;;;;;;9.13;6.00;;;;;;;;;;5058107;28;20033;-80
2022/07/13 08:20:13;;;;;;;7.57;4.88;;;;;;;;;;5059282;28;20458;-80
2022/07/13 08:22:39;;;;;;;9.05;5.07;;;;;;;;;;5056055;28;20071;-80
2022/07/13 08:25:05;;;;;;;6.32;4.75;;;;;;;;;;5059087;28;20033;-80
2022/07/13 08:27:32;;;;;;;10.57;4.75;;;;;;;;;;5056871;28;20029;-79
2022/07/13 08:29:59;;;;;;;7.93;4.72;;;;;;;;;;5035228;28;20037;-79
2022/07/13 08:32:25;;;;;;;8.45;4.40;;;;;;;;;;5037356;28;20029;-81
2022/07/13 08:40:21;;;;;;;8.65;3.70;;;;;;;;;;5057091;28;20067;-80
2022/07/13 08:42:47;;;;;;;9.18;4.13;;;;;;;;;;5055683;28;20032;-80
2022/07/13 08:45:13;;;;;;;9.57;3.40;;;;;;;;;;5055608;28;20037;-81
2022/07/13 08:47:41;;;;;;;8.70;3.60;;;;;;;;;;5056974;28;20065;-81
2022/07/13 08:50:08;;;;;;;8.23;3.45;;;;;;;;;;5056977;28;20494;-81
2022/07/13 08:52:39;;;;;;;10.75;4.60;;;;;;;;;;5055780;28;20025;-80
2022/07/13 08:55:06;;;;;;;5.60;3.53;;;;;;;;;;5056417;28;20049;-79
2022/07/13 08:57:37;;;;;;;8.43;3.58;;;;;;;;;;5055821;28;20087;-81
2022/07/13 09:00:06;;;;;;;7.03;3.35;;;;;;;;;;5053168;28;20029;-80
2022/07/13 09:02:33;;;;;;;11.47;3.70;;;;;;;;;;5054105;28;20049;-80
2022/07/13 09:05:01;;;;;;;8.38;3.15;;;;;;;;;;5055693;28;20061;-81
2022/07/13 09:07:27;;;;;;;10.93;3.28;;;;;;;;;;5054675;28;20051;-81
2022/07/13 09:09:58;;;;;;;12.23;3.10;;;;;;;;;;5053466;28;20028;-81
2022/07/13 09:12:25;;;;;;;9.25;3.20;;;;;;;;;;5053279;28;20079;-81
2022/07/13 09:15:02;;;;;;;9.38;3.00;;;;;;;;;;5053159;28;20059;-81
2022/07/13 09:17:31;;;;;;;8.00;2.70;;;;;;;;;;5053237;28;20234;-82
2022/07/13 09:19:58;;;;;;;9.38;2.80;;;;;;;;;;5052888;28;20520;-81
2022/07/13 09:22:24;;;;;;;8.40;2.47;;;;;;;;;;5044427;28;20030;-81
2022/07/13 09:24:51;;;;;;;7.30;2.60;;;;;;;;;;5031878;28;20041;-81
2022/07/13 09:27:18;;;;;;;6.40;2.83;;;;;;;;;;5032784;28;20075;-81
2022/07/13 09:29:44;;;;;;;8.98;2.83;;;;;;;;;;5032752;28;20108;-81
2022/07/13 09:32:11;;;;;;;5.80;2.70;;;;;;;;;;5032889;28;20531;-81
2022/07/13 09:34:48;;;;;;;8.15;3.42;;;;;;;;;;5040314;28;20021;-80
2022/07/13 09:37:15;;;;;;;4.75;2.90;;;;;;;;;;5051767;28;20479;-80
2022/07/13 09:39:59;;;;;;;7.18;2.78;;;;;;;;;;5051173;28;20021;-81
2022/07/13 09:42:33;;;;;;;5.20;3.10;;;;;;;;;;5052676;28;20086;-80
2022/07/13 09:47:54;;;;;;;9.10;2.90;;;;;;;;;;5052608;28;20094;-81
2022/07/13 09:50:22;;;;;;;6.07;2.55;;;;;;;;;;5047243;28;20044;-80
2022/07/13 09:52:49;;;;;;;5.40;2.58;;;;;;;;;;5052659;28;20047;-81
2022/07/13 09:55:23;;;;;;;6.22;2.65;;;;;;;;;;5050405;28;20049;-81
2022/07/13 09:57:53;;;;;;;5.15;2.85;;;;;;;;;;5052555;28;20036;-81
2022/07/13 10:00:19;;;;;;;;;;;;;;;;;;5052843;28;20470;-82
2022/07/13 10:02:49;;;;;;;5.65;2.65;;;;;;;;;;5051578;28;19923;-81
2022/07/13 10:05:15;;;;;;;;;;;;;;;;;;5052465;28;20025;-82
2022/07/13 10:07:42;;;;;;;6.25;2.72;;;;;;;;;;5047365;28;19966;-79
2022/07/13 10:10:09;;;;;;;10.27;2.70;;;;;;;;;;5032899;28;20483;-81
2022/07/13 10:12:38;;;;;;;7.28;3.17;;;;;;;;;;5032401;28;20063;-80
2022/07/13 10:15:04;;;;;;;7.10;2.57;;;;;;;;;;5038311;28;20029;-82
2022/07/13 10:17:31;;;;;;;8.75;2.50;;;;;;;;;;5053909;28;20024;-81
2022/07/13 10:19:57;;;;;;;7.93;2.90;;;;;;;;;;5051241;28;20032;-81
2022/07/13 10:22:25;;;;;;;10.68;3.40;;;;;;;;;;5051146;28;20027;-81
2022/07/13 10:24:53;;;;;;;6.38;3.00;;;;;;;;;;5051758;28;20040;-82
2022/07/13 10:27:23;;;;;;;5.95;2.90;;;;;;;;;;5030641;28;20121;-81
2022/07/13 10:29:56;;;;;;;11.15;3.22;;;;;;;;;;5031723;28;20401;-80
2022/07/13 10:32:27;;;;;;;6.63;3.35;;;;;;;;;;5030787;28;20040;-82
2022/07/13 10:34:53;;;;;;;6.03;2.97;;;;;;;;;;5031995;28;20479;-82
2022/07/13 10:37:19;;;;;;;6.53;3.17;;;;;;;;;;5049535;28;20029;-83
2022/07/13 10:40:04;;;;;;;5.82;2.67;;;;;;;;;;5051645;28;20040;-82
2022/07/13 10:42:50;;;;;;;4.55;2.60;;;;;;;;;;5051333;28;20102;-81
2022/07/13 10:45:34;;;;;;;4.13;2.65;;;;;;;;;;5051799;28;20025;-82
2022/07/13 10:48:05;;;;;;;9.00;3.10;;;;;;;;;;5051998;28;20033;-82
2022/07/13 10:50:39;;;;;;;6.05;3.10;;;;;;;;;;5052921;28;20116;-81
2022/07/13 10:53:05;;;;;;;4.95;3.00;;;;;;;;;;5051988;28;20040;-81
2022/07/13 10:55:34;;;;;;;7.13;2.40;;;;;;;;;;5047692;28;20063;-82
2022/07/13 10:58:20;;;;;;;7.63;2.75;;;;;;;;;;5052281;28;20494;-80
2022/07/13 11:00:48;;;;;;;6.10;2.72;;;;;;;;;;5062597;28;20136;-82
2022/07/13 11:03:31;;;;;;;9.50;3.20;;;;;;;;;;5030934;28;20127;-80
2022/07/13 11:06:17;;;;;;;10.73;3.17;;;;;;;;;;5030737;28;20055;-81
2022/07/13 11:08:43;;;;;;;6.03;2.63;;;;;;;;;;5033058;28;20033;-80
2022/07/13 11:11:14;;;;;;;5.88;2.55;;;;;;;;;;5030711;28;20057;-81
2022/07/13 11:13:40;;;;;;;5.85;2.80;;;;;;;;;;5036865;28;20052;-81
2022/07/13 11:16:07;;;;;;;10.77;2.78;;;;;;;;;;5033715;28;20033;-82
2022/07/13 11:18:37;;;;;;;9.15;3.42;;;;;;;;;;5051492;28;20592;-80
2022/07/13 11:21:04;;;;;;;9.45;2.83;;;;;;;;;;5050924;28;20040;-82
2022/07/13 11:26:31;;;;;;;7.65;3.10;;;;;;;;;;5051493;28;20505;-83
2022/07/13 11:28:57;;;;;;;;;;;;;;;;;;5051760;28;20398;-82
2022/07/13 11:31:23;;;;;;;6.97;3.10;;;;;;;;;;5051873;28;19905;-82
2022/07/13 11:33:50;;;;;;;6.88;3.50;;;;;;;;;;5050537;28;20121;-84
2022/07/13 11:36:26;;;;;;;7.55;3.53;;;;;;;;;;5051677;28;20116;-83
2022/07/13 11:38:52;;;;;;;7.05;3.30;;;;;;;;;;5051644;28;20021;-81
2022/07/13 11:41:20;;;;;;;10.75;4.55;;;;;;;;;;5051188;28;20037;-81
2022/07/13 11:43:50;;;;;;;11.00;3.17;;;;;;;;;;5050599;28;20017;-82
2022/07/13 11:46:26;;;;;;;8.57;3.30;;;;;;;;;;5048009;28;20036;-81
2022/07/13 11:48:59;;;;;;;6.00;3.10;;;;;;;;;;5049738;28;20408;-82
2022/07/13 11:51:25;;;;;;;4.47;3.25;;;;;;;;;;5049562;28;20033;-82
2022/07/13 11:53:51;;;;;;;10.88;3.60;;;;;;;;;;5050183;28;20052;-81
2022/07/13 11:56:18;;;;;;;8.82;3.17;;;;;;;;;;5051281;28;20037;-82
2022/07/13 11:58:45;;;;;;;7.43;3.05;;;;;;;;;;5051058;28;20025;-82
2022/07/13 12:01:12;;;;;;;7.40;3.70;;;;;;;;;;5049889;28;20054;-82
2022/07/13 12:03:38;;;;;;;8.88;3.55;;;;;;;;;;5051913;28;20025;-83
2022/07/13 12:06:14;;;;;;;10.40;3.30;;;;;;;;;;5044295;28;20040;-80
2022/07/13 12:08:41;;;;;;;8.43;3.30;;;;;;;;;;5030936;28;20072;-83
2022/07/13 12:11:08;;;;;;;9.13;3.30;;;;;;;;;;5031838;28;20025;-83
2022/07/13 12:13:40;;;;;;;5.35;2.90;;;;;;;;;;5031816;28;20025;-82
2022/07/13 12:16:10;;;;;;;10.75;3.90;;;;;;;;;;5031632;28;20101;-82
2022/07/13 12:18:54;;;;;;;12.77;3.63;;;;;;;;;;5044130;28;20090;-81
2022/07/13 12:21:21;;;;;;;8.30;3.45;;;;;;;;;;5051441;28;20468;-80
2022/07/13 12:23:48;;;;;;;5.50;3.40;;;;;;;;;;5051704;28;20037;-82
2022/07/13 12:26:14;;;;;;;6.50;3.00;;;;;;;;;;5051421;28;20266;-80
2022/07/13 12:28:42;;;;;;;8.27;3.25;;;;;;;;;;5049607;28;20527;-82
2022/07/13 12:31:08;;;;;;;6.88;3.40;;;;;;;;;;5047948;28;20039;-80
2022/07/13 12:33:45;;;;;;;10.90;4.03;;;;;;;;;;5037112;28;20083;-81
2022/07/13 12:36:12;;;;;;;6.68;2.85;;;;;;;;;;5033341;28;20022;-82
2022/07/13 12:38:55;;;;;;;9.50;2.90;;;;;;;;;;5035006;28;20112;-80
2022/07/13 12:41:32;;;;;;;7.70;3.10;;;;;;;;;;5033710;28;20043;-80
2022/07/13 12:44:00;;;;;;;4.75;2.92;;;;;;;;;;5033498;28;20033;-80
2022/07/13 12:46:26;;;;;;;8.15;2.50;;;;;;;;;;5052486;28;20091;-81
2022/07/13 12:49:03;;;;;;;5.18;2.60;;;;;;;;;;5070203;28;20025;-79
2022/07/13 12:51:51;;;;;;;4.97;2.47;;;;;;;;;;5070238;28;20490;-81
2022/07/13 12:54:18;;;;;;;5.53;2.20;;;;;;;;;;5051993;28;20044;-81
2022/07/13 12:56:48;;;;;;;8.05;2.58;;;;;;;;;;5054563;28;20106;-81
2022/07/13 12:59:17;;;;;;;6.55;2.20;;;;;;;;;;5054296;28;20103;-78
2022/07/13 13:01:44;;;;;;;6.95;2.45;;;;;;;;;;5051539;28;20032;-80
2022/07/13 13:04:11;;;;;;;4.47;2.40;;;;;;;;;;5054217;28;20339;-81
2022/07/13 13:06:39;;;;;;;12.00;2.17;;;;;;;;;;5052727;28;20094;-81
2022/07/13 13:09:23;;;;;;;8.80;2.50;;;;;;;;;;5049048;28;20375;-81
2022/07/13 13:11:49;;;;;;;8.65;2.80;;;;;;;;;;5045144;28;20052;-83
2022/07/13 13:14:18;;;;;;;8.13;2.88;;;;;;;;;;5054712;28;20041;-81
2022/07/13 13:16:45;;;;;;;4.13;2.25;;;;;;;;;;5052489;28;20060;-82
2022/07/13 13:19:12;;;;;;;5.35;2.38;;;;;;;;;;5069027;28;20087;-80
2022/07/13 13:21:40;;;;;;;7.68;2.25;;;;;;;;;;5053355;28;20029;-80
2022/07/13 13:24:07;;;;;;;7.43;2.22;;;;;;;;;;5054636;28;20112;-80
2022/07/13 13:26:39;;;;;;;4.03;2.00;;;;;;;;;;5069156;28;20029;-81
2022/07/13 13:31:50;;;;;;;4.43;2.22;;;;;;;;;;5045069;28;20097;-81
2022/07/13 13:34:16;;;;;;;4.15;2.10;;;;;;;;;;5053876;28;20048;-81
2022/07/13 13:36:42;;;;;;;5.97;1.98;;;;;;;;;;5054156;28;20057;-81
2022/07/13 13:39:08;;;;;;;3.45;2.10;;;;;;;;;;5052075;28;20040;-81
2022/07/13 13:41:35;;;;;;;7.75;2.05;;;;;;;;;;5053714;28;20028;-80
2022/07/13 13:44:02;;;;;;;5.57;2.67;;;;;;;;;;5053938;28;20037;-82
2022/07/13 13:46:28;;;;;;;5.30;2.25;;;;;;;;;;5051093;28;20025;-80
2022/07/13 13:48:54;;;;;;;5.95;2.60;;;;;;;;;;5052500;28;20029;-80
2022/07/13 13:51:20;;;;;;;9.07;2.42;;;;;;;;;;5046715;28;20052;-80
2022/07/13 13:53:46;;;;;;;10.60;2.60;;;;;;;;;;5052522;28;20049;-81
2022/07/13 13:56:12;;;;;;;9.63;1.90;;;;;;;;;;5051830;28;20028;-81
2022/07/13 13:58:39;;;;;;;3.97;2.03;;;;;;;;;;5052462;28;20376;-81
2022/07/13 14:01:05;;;;;;;4.55;2.10;;;;;;;;;;5052010;28;20252;-81
2022/07/13 14:03:32;;;;;;;5.70;2.30;;;;;;;;;;5053616;28;20083;-81
2022/07/13 14:05:58;;;;;;;5.13;2.22;;;;;;;;;;5053306;28;20040;-82
2022/07/13 14:08:24;;;;;;;9.10;2.70;;;;;;;;;;5053181;28;20033;-82
2022/07/13 14:10:50;;;;;;;5.43;2.58;;;;;;;;;;5051680;28;20029;-82
2022/07/13 14:13:16;;;;;;;6.15;2.63;;;;;;;;;;5068467;28;20252;-80
2022/07/13 14:15:42;;;;;;;9.07;2.97;;;;;;;;;;5053505;28;20029;-81
2022/07/13 14:18:10;;;;;;;6.30;2.78;;;;;;;;;;5052567;28;20646;-82
2022/07/13 14:20:36;;;;;;;8.77;2.55;;;;;;;;;;5047005;28;20113;-81
2022/07/13 14:23:02;;;;;;;10.23;2.50;;;;;;;;;;5042124;28;20116;-81
2022/07/13 14:25:28;;;;;;;8.43;2.47;;;;;;;;;;5033688;28;20569;-82
2022/07/13 14:27:54;;;;;;;9.52;2.50;;;;;;;;;;5033881;28;20041;-81
2022/07/13 14:30:20;;;;;;;9.68;2.83;;;;;;;;;;5033379;28;20253;-82
2022/07/13 14:32:46;;;;;;;8.23;2.50;;;;;;;;;;5033941;28;20021;-82
2022/07/13 14:35:12;;;;;;;5.45;2.60;;;;;;;;;;5039417;28;20059;-81
2022/07/13 14:37:38;;;;;;;8.82;2.70;;;;;;;;;;5037615;28;20048;-81
2022/07/13 14:40:07;;;;;;;3.95;2.13;;;;;;;;;;5049650;28;20029;-82
2022/07/13 14:42:33;;;;;;;5.43;2.05;;;;;;;;;;5044718;28;20463;-80
2022/07/13 14:44:59;;;;;;;4.22;2.00;;;;;;;;;;5038209;28;20434;-81